createdAt,value
2019-05-26T00:02:26.916Z,95273.18
2019-05-26T00:04:58.109Z,95269.39
2019-05-26T00:07:30.848Z,95270.70
2019-05-26T00:10:02.453Z,95263.34
2019-05-26T00:12:33.857Z,95271.56
2019-05-26T00:15:05.565Z,95266.44
2019-05-26T00:17:37.819Z,95270.70
2019-05-26T00:20:09.577Z,95267.25
2019-05-26T00:22:40.691Z,95263.05
2019-05-26T00:25:12.327Z,95258.09
2019-05-26T00:27:43.549Z,95257.58
2019-05-26T00:30:16.692Z,95251.70
2019-05-26T00:32:47.846Z,95252.89
2019-05-26T00:35:19.075Z,95250.91
2019-05-26T00:37:50.975Z,95242.20
2019-05-26T00:40:22.507Z,95244.17
2019-05-26T00:42:53.794Z,95249.08
2019-05-26T00:45:25.546Z,95242.53
2019-05-26T00:47:56.787Z,95246.75
2019-05-26T00:50:27.966Z,95241.25
2019-05-26T00:52:59.161Z,95237.16
2019-05-26T00:55:30.365Z,95241.39
2019-05-26T00:58:01.824Z,95240.89
2019-05-26T01:00:43.567Z,95238.77
2019-05-26T01:03:15.076Z,95238.10
2019-05-26T01:05:46.542Z,95240.95
2019-05-26T01:08:17.743Z,95237.97
2019-05-26T01:10:48.925Z,95237.13
2019-05-26T01:13:20.108Z,95231.90
2019-05-26T01:15:51.194Z,95235.52
2019-05-26T01:18:22.425Z,95236.97
2019-05-26T01:20:53.677Z,95234.52
2019-05-26T01:23:24.876Z,95229.12
2019-05-26T01:25:56.192Z,95225.55
2019-05-26T01:28:27.279Z,95232.11
2019-05-26T01:30:58.478Z,95230.74
2019-05-26T01:33:29.727Z,95235.37
2019-05-26T01:36:01.094Z,95239.80
2019-05-26T01:38:33.379Z,95237.98
2019-05-26T01:41:04.507Z,95234.86
2019-05-26T01:43:35.722Z,95236.99
2019-05-26T01:46:07.764Z,95235.38
2019-05-26T01:48:39.001Z,95236.33
2019-05-26T01:51:10.148Z,95237.66
2019-05-26T01:53:41.518Z,95230.48
2019-05-26T01:56:12.621Z,95240.61
2019-05-26T01:58:43.732Z,95234.27
2019-05-26T02:01:14.947Z,95239.96
2019-05-26T02:03:46.144Z,95239.28
2019-05-26T02:06:17.154Z,95238.34
2019-05-26T02:08:48.369Z,95242.89
2019-05-26T02:11:19.483Z,95244.52
2019-05-26T02:13:50.715Z,95246.19
2019-05-26T02:16:22.048Z,95236.20
2019-05-26T02:18:53.273Z,95240.92
2019-05-26T02:21:24.398Z,95241.59
2019-05-26T02:23:55.529Z,95235.38
2019-05-26T02:26:26.747Z,95240.62
2019-05-26T02:28:57.780Z,95240.44
2019-05-26T02:31:28.802Z,95238.67
2019-05-26T02:33:59.855Z,95242.94
2019-05-26T02:36:31.071Z,95239.98
2019-05-26T02:39:03.607Z,95244.06
2019-05-26T02:41:34.721Z,95236.03
2019-05-26T02:44:06.237Z,95234.41
2019-05-26T02:46:37.419Z,95236.70
2019-05-26T02:49:08.651Z,95240.97
2019-05-26T02:51:39.839Z,95239.98
2019-05-26T02:54:11.028Z,95242.59
2019-05-26T02:56:42.331Z,95238.83
2019-05-26T02:59:13.536Z,95240.44
2019-05-26T03:02:02.115Z,95239.81
2019-05-26T03:04:17.911Z,95239.81
2019-05-26T03:06:50.691Z,95232.27
2019-05-26T03:09:24.054Z,95235.72
2019-05-26T03:11:57.539Z,95235.41
2019-05-26T03:14:32.020Z,95236.19
2019-05-26T03:17:04.080Z,95237.84
2019-05-26T03:19:36.309Z,95234.09
2019-05-26T03:22:07.517Z,95235.23
2019-05-26T03:24:42.136Z,95236.38
2019-05-26T03:27:13.253Z,95238.67
2019-05-26T03:29:44.302Z,95234.75
2019-05-26T03:32:15.346Z,95235.86
2019-05-26T03:34:46.751Z,95236.84
2019-05-26T03:37:17.816Z,95238.84
2019-05-26T03:39:48.882Z,95239.66
2019-05-26T03:42:20.291Z,95238.98
2019-05-26T03:44:51.615Z,95235.56
2019-05-26T03:47:22.775Z,95244.56
2019-05-26T03:49:53.984Z,95243.25
2019-05-26T03:52:25.120Z,95241.62
2019-05-26T03:54:56.429Z,95239.16
2019-05-26T03:57:27.461Z,95245.55
2019-05-26T03:59:58.681Z,95239.99
2019-05-26T04:02:29.823Z,95247.19
2019-05-26T04:05:00.902Z,95247.17
2019-05-26T04:07:31.960Z,95252.42
2019-05-26T04:10:05.875Z,95251.41
2019-05-26T04:12:35.897Z,95253.37
2019-05-26T04:15:07.311Z,95257.98
2019-05-26T04:17:38.529Z,95258.47
2019-05-26T04:20:10.056Z,95261.72
2019-05-26T04:22:41.317Z,95259.61
2019-05-26T04:25:13.034Z,95257.48
2019-05-26T04:27:44.184Z,95262.22
2019-05-26T04:30:15.515Z,95258.79
2019-05-26T04:32:46.627Z,95259.43
2019-05-26T04:35:17.891Z,95261.74
2019-05-26T04:37:48.914Z,95266.17
2019-05-26T04:40:26.948Z,95267.28
2019-05-26T04:42:53.100Z,95263.54
2019-05-26T04:45:24.308Z,95260.59
2019-05-26T04:47:55.714Z,95262.88
2019-05-26T04:50:27.031Z,95266.30
2019-05-26T04:53:06.295Z,95261.55
2019-05-26T04:55:31.072Z,95265.50
2019-05-26T04:58:02.327Z,95265.13
2019-05-26T05:00:33.758Z,95262.16
2019-05-26T05:03:05.203Z,95264.62
2019-05-26T05:05:36.380Z,95271.66
2019-05-26T05:08:07.876Z,95265.77
2019-05-26T05:10:42.650Z,95269.88
2019-05-26T05:13:12.276Z,95276.25
2019-05-26T05:15:43.571Z,95277.90
2019-05-26T05:18:14.701Z,95276.58
2019-05-26T05:20:45.885Z,95274.45
2019-05-26T05:23:17.174Z,95279.34
2019-05-26T05:25:48.416Z,95274.82
2019-05-26T05:28:19.673Z,95278.72
2019-05-26T05:30:50.931Z,95283.93
2019-05-26T05:33:22.159Z,95279.50
2019-05-26T05:35:53.355Z,95281.17
2019-05-26T05:38:24.758Z,95282.78
2019-05-26T05:41:00.010Z,95287.53
2019-05-26T05:43:28.973Z,95286.54
2019-05-26T05:46:00.218Z,95291.42
2019-05-26T05:48:31.532Z,95280.98
2019-05-26T05:51:02.694Z,95289.13
2019-05-26T05:53:33.815Z,95287.66
2019-05-26T05:56:05.639Z,95288.31
2019-05-26T05:58:36.834Z,95288.33
2019-05-26T06:01:08.182Z,95289.94
2019-05-26T06:03:39.343Z,95290.27
2019-05-26T06:06:10.818Z,95288.36
2019-05-26T06:08:42.125Z,95292.59
2019-05-26T06:11:16.981Z,95292.77
2019-05-26T06:13:46.219Z,95288.33
2019-05-26T06:16:17.435Z,95291.30
2019-05-26T06:18:48.997Z,95293.64
2019-05-26T06:21:20.249Z,95292.97
2019-05-26T06:23:51.536Z,95293.11
2019-05-26T06:26:23.798Z,95296.66
2019-05-26T06:28:54.856Z,95293.55
2019-05-26T06:31:25.993Z,95292.38
2019-05-26T06:33:57.067Z,95293.52
2019-05-26T06:36:28.231Z,95296.36
2019-05-26T06:38:59.330Z,95291.32
2019-05-26T06:41:33.846Z,95289.08
2019-05-26T06:44:03.456Z,95289.94
2019-05-26T06:46:34.819Z,95297.23
2019-05-26T06:49:06.064Z,95292.28
2019-05-26T06:51:37.279Z,95291.39
2019-05-26T06:54:09.677Z,95300.75
2019-05-26T06:56:40.925Z,95300.33
2019-05-26T06:59:12.174Z,95298.42
2019-05-26T07:01:43.265Z,95294.87
2019-05-26T07:04:14.891Z,95303.06
2019-05-26T07:06:46.071Z,95293.03
2019-05-26T07:09:17.142Z,95298.59
2019-05-26T07:11:55.901Z,95291.89
2019-05-26T07:14:22.398Z,95294.12
2019-05-26T07:16:53.594Z,95298.33
2019-05-26T07:19:24.800Z,95309.76
2019-05-26T07:21:56.285Z,95305.29
2019-05-26T07:24:29.476Z,95311.55
2019-05-26T07:27:00.452Z,95308.14
2019-05-26T07:29:32.650Z,95315.59
2019-05-26T07:32:05.746Z,95320.44
2019-05-26T07:34:36.799Z,95319.57
2019-05-26T07:37:09.198Z,95318.12
2019-05-26T07:39:40.304Z,95331.22
2019-05-26T07:42:11.666Z,95322.50
2019-05-26T07:44:43.199Z,95320.73
2019-05-26T07:47:14.446Z,95320.05
2019-05-26T07:49:45.601Z,95311.67
2019-05-26T07:52:16.679Z,95306.66
2019-05-26T07:54:47.786Z,95305.70
2019-05-26T07:57:18.947Z,95312.70
2019-05-26T07:59:50.016Z,95310.95
2019-05-26T08:02:21.313Z,95311.01
2019-05-26T08:04:52.507Z,95314.59
2019-05-26T08:07:23.796Z,95310.03
2019-05-26T08:09:55.047Z,95305.58
2019-05-26T08:12:30.427Z,95308.44
2019-05-26T08:14:59.948Z,95310.84
2019-05-26T08:17:31.454Z,95305.76
2019-05-26T08:20:02.749Z,95304.80
2019-05-26T08:22:34.041Z,95302.91
2019-05-26T08:25:05.571Z,95297.59
2019-05-26T08:27:36.995Z,95291.96
2019-05-26T08:30:09.417Z,95290.34
2019-05-26T08:32:40.988Z,95295.09
2019-05-26T08:35:12.995Z,95293.44
2019-05-26T08:37:44.718Z,95282.31
2019-05-26T08:40:19.466Z,95277.92
2019-05-26T08:42:52.405Z,95274.28
2019-05-26T08:45:24.473Z,95282.06
2019-05-26T08:47:55.664Z,95287.19
2019-05-26T08:50:27.107Z,95287.58
2019-05-26T08:52:58.105Z,95277.44
2019-05-26T08:55:29.331Z,95283.14
2019-05-26T08:58:00.474Z,95272.23
2019-05-26T09:00:31.600Z,95281.59
2019-05-26T09:03:02.819Z,95278.52
2019-05-26T09:05:33.973Z,95281.23
2019-05-26T09:08:07.936Z,95273.36
2019-05-26T09:10:38.037Z,95275.59
2019-05-26T09:13:09.165Z,95271.24
2019-05-26T09:15:41.109Z,95267.73
2019-05-26T09:18:12.226Z,95266.30
2019-05-26T09:20:43.429Z,95267.59
2019-05-26T09:23:14.938Z,95268.16
2019-05-26T09:25:46.774Z,95270.16
2019-05-26T09:28:18.078Z,95265.98
2019-05-26T09:30:49.346Z,95263.60
2019-05-26T09:33:20.498Z,95261.56
2019-05-26T09:35:51.768Z,95256.83
2019-05-26T09:38:23.211Z,95257.98
2019-05-26T09:40:54.326Z,95252.66
2019-05-26T09:43:25.606Z,95242.33
2019-05-26T09:45:56.809Z,95242.80
2019-05-26T09:48:28.059Z,95245.86
2019-05-26T09:50:59.196Z,95242.19
2019-05-26T09:53:30.384Z,95230.86
2019-05-26T09:56:01.624Z,95236.33
2019-05-26T09:58:34.044Z,95233.58
2019-05-26T10:01:05.639Z,95236.23
2019-05-26T10:03:36.979Z,95241.00
2019-05-26T10:06:08.199Z,95250.05
2019-05-26T10:08:39.365Z,95241.53
2019-05-26T10:11:10.539Z,95242.61
2019-05-26T10:13:41.683Z,95246.91
2019-05-26T10:16:12.849Z,95237.64
2019-05-26T10:18:44.416Z,95238.30
2019-05-26T10:21:15.640Z,95238.21
2019-05-26T10:23:46.748Z,95238.73
2019-05-26T10:26:17.819Z,95235.77
2019-05-26T10:28:48.951Z,95235.72
2019-05-26T10:31:20.222Z,95241.48
2019-05-26T10:33:51.359Z,95238.73
2019-05-26T10:36:22.761Z,95232.68
2019-05-26T10:38:54.381Z,95233.62
2019-05-26T10:41:25.632Z,95230.59
2019-05-26T10:43:56.876Z,95234.70
2019-05-26T10:46:28.127Z,95224.73
2019-05-26T10:48:59.204Z,95220.34
2019-05-26T10:51:30.307Z,95226.97
2019-05-26T10:54:01.454Z,95214.09
2019-05-26T10:56:32.625Z,95215.89
2019-05-26T10:59:04.094Z,95212.78
2019-05-26T11:01:36.360Z,95208.17
2019-05-26T11:04:07.867Z,95217.83
2019-05-26T11:06:39.124Z,95212.84
2019-05-26T11:09:10.445Z,95211.62
2019-05-26T11:11:41.965Z,95208.58
2019-05-26T11:14:13.046Z,95208.28
2019-05-26T11:16:44.125Z,95206.95
2019-05-26T11:19:15.393Z,95200.66
2019-05-26T11:21:46.707Z,95198.32
2019-05-26T11:24:17.858Z,95200.44
2019-05-26T11:26:49.472Z,95204.63
2019-05-26T11:29:21.650Z,95203.70
2019-05-26T11:31:52.918Z,95200.20
2019-05-26T11:34:24.124Z,95195.33
2019-05-26T11:36:55.295Z,95187.42
2019-05-26T11:39:26.633Z,95181.53
2019-05-26T11:42:12.345Z,95179.61
2019-05-26T11:44:30.646Z,95175.63
2019-05-26T11:47:01.914Z,95178.06
2019-05-26T11:49:33.008Z,95171.91
2019-05-26T11:52:04.278Z,95173.70
2019-05-26T11:54:35.499Z,95168.81
2019-05-26T11:57:06.856Z,95169.44
2019-05-26T11:59:38.083Z,95166.59
2019-05-26T12:02:10.527Z,95165.98
2019-05-26T12:04:41.692Z,95173.27
2019-05-26T12:07:12.955Z,95166.05
2019-05-26T12:09:44.082Z,95160.08
2019-05-26T12:12:15.309Z,95156.11
2019-05-26T12:14:46.474Z,95158.14
2019-05-26T12:17:17.637Z,95153.57
2019-05-26T12:19:48.743Z,95153.64
2019-05-26T12:22:19.880Z,95149.78
2019-05-26T12:24:51.400Z,95145.34
2019-05-26T12:27:22.566Z,95137.80
2019-05-26T12:29:53.734Z,95139.63
2019-05-26T12:32:24.806Z,95130.39
2019-05-26T12:34:56.057Z,95125.91
2019-05-26T12:37:27.200Z,95118.09
2019-05-26T12:39:58.290Z,95126.94
2019-05-26T12:42:29.628Z,95129.18
2019-05-26T12:45:00.956Z,95123.06
2019-05-26T12:47:32.178Z,95112.20
2019-05-26T12:50:03.528Z,95113.72
2019-05-26T12:52:34.740Z,95116.17
2019-05-26T12:55:09.397Z,95112.69
2019-05-26T12:57:40.686Z,95114.02
2019-05-26T13:00:13.906Z,95116.91
2019-05-26T13:02:44.991Z,95111.92
2019-05-26T13:05:17.694Z,95114.09
2019-05-26T13:07:48.830Z,95116.33
2019-05-26T13:10:20.295Z,95112.59
2019-05-26T13:12:51.413Z,95104.26
2019-05-26T13:15:23.237Z,95097.20
2019-05-26T13:17:54.484Z,95095.25
2019-05-26T13:20:26.842Z,95097.86
2019-05-26T13:22:57.981Z,95099.46
2019-05-26T13:25:29.259Z,95086.37
2019-05-26T13:28:00.344Z,95083.78
2019-05-26T13:30:32.482Z,95089.28
2019-05-26T13:33:03.729Z,95086.37
2019-05-26T13:35:34.886Z,95084.27
2019-05-26T13:38:06.541Z,95084.77
2019-05-26T13:40:37.758Z,95079.58
2019-05-26T13:43:08.932Z,95077.81
2019-05-26T13:45:40.477Z,95078.70
2019-05-26T13:48:11.852Z,95076.77
2019-05-26T13:50:43.083Z,95074.80
2019-05-26T13:53:14.301Z,95073.70
2019-05-26T13:55:45.581Z,95073.84
2019-05-26T13:58:16.892Z,95072.14
2019-05-26T14:00:48.240Z,95064.69
2019-05-26T14:03:19.466Z,95072.23
2019-05-26T14:05:50.761Z,95073.80
2019-05-26T14:08:21.950Z,95069.63
2019-05-26T14:10:53.343Z,95068.81
2019-05-26T14:13:25.469Z,95075.11
2019-05-26T14:15:58.201Z,95071.20
2019-05-26T14:18:31.690Z,95073.11
2019-05-26T14:21:03.096Z,95070.31
2019-05-26T14:23:34.299Z,95078.52
2019-05-26T14:26:05.545Z,95076.53
2019-05-26T14:28:46.726Z,95075.77
2019-05-26T14:31:17.988Z,95069.52
2019-05-26T14:33:49.252Z,95071.91
2019-05-26T14:36:20.479Z,95065.30
2019-05-26T14:38:51.689Z,95062.75
2019-05-26T14:41:23.047Z,95056.78
2019-05-26T14:43:54.326Z,95066.34
2019-05-26T14:46:25.722Z,95059.77
2019-05-26T14:48:56.806Z,95059.14
2019-05-26T14:51:27.928Z,95059.98
2019-05-26T14:53:59.258Z,95056.83
2019-05-26T14:56:30.564Z,95052.69
2019-05-26T14:59:01.633Z,95060.89
2019-05-26T15:01:32.897Z,95056.12
2019-05-26T15:04:04.041Z,95056.05
2019-05-26T15:06:35.226Z,95055.14
2019-05-26T15:09:22.367Z,95056.25
2019-05-26T15:11:41.318Z,95048.96
2019-05-26T15:14:12.532Z,95052.45
2019-05-26T15:16:43.672Z,95044.56
2019-05-26T15:19:14.910Z,95054.59
2019-05-26T15:21:46.141Z,95056.05
2019-05-26T15:24:17.446Z,95051.96
2019-05-26T15:26:48.540Z,95049.77
2019-05-26T15:29:19.743Z,95050.34
2019-05-26T15:31:50.992Z,95052.84
2019-05-26T15:34:22.361Z,95044.63
2019-05-26T15:36:53.637Z,95044.19
2019-05-26T15:39:24.934Z,95042.73
2019-05-26T15:41:56.100Z,95048.33
2019-05-26T15:44:27.416Z,95037.41
2019-05-26T15:46:58.690Z,95039.80
2019-05-26T15:49:29.927Z,95030.83
2019-05-26T15:52:01.223Z,95033.20
2019-05-26T15:54:32.489Z,95029.52
2019-05-26T15:57:03.850Z,95035.69
2019-05-26T15:59:35.078Z,95031.02
2019-05-26T16:02:06.427Z,95028.82
2019-05-26T16:04:37.716Z,95022.98
2019-05-26T16:07:09.077Z,95029.52
2019-05-26T16:09:40.296Z,95036.78
2019-05-26T16:12:11.610Z,95030.47
2019-05-26T16:14:42.867Z,95036.87
2019-05-26T16:17:14.285Z,95032.63
2019-05-26T16:19:45.455Z,95023.17
2019-05-26T16:22:16.766Z,95030.20
2019-05-26T16:24:48.095Z,95020.97
2019-05-26T16:27:20.002Z,95022.22
2019-05-26T16:29:51.327Z,95023.80
2019-05-26T16:32:22.711Z,95014.77
2019-05-26T16:34:53.888Z,95019.53
2019-05-26T16:37:25.159Z,95017.19
2019-05-26T16:39:56.365Z,95014.34
2019-05-26T16:42:27.681Z,95017.40
2019-05-26T16:44:58.841Z,95012.31
2019-05-26T16:47:30.202Z,95007.63
2019-05-26T16:50:01.466Z,95002.05
2019-05-26T16:52:32.697Z,95001.95
2019-05-26T16:55:04.246Z,95002.38
2019-05-26T16:57:35.535Z,95005.50
2019-05-26T17:00:07.646Z,95005.19
2019-05-26T17:02:39.153Z,94997.89
2019-05-26T17:05:10.477Z,94995.36
2019-05-26T17:07:41.592Z,94996.25
2019-05-26T17:10:13.177Z,95003.03
2019-05-26T17:12:44.260Z,94995.96
2019-05-26T17:15:15.851Z,94997.35
2019-05-26T17:17:47.213Z,94991.38
2019-05-26T17:20:18.919Z,94995.06
2019-05-26T17:22:50.315Z,94987.25
2019-05-26T17:25:21.568Z,94986.42
2019-05-26T17:27:52.779Z,94979.90
2019-05-26T17:30:24.315Z,94986.20
2019-05-26T17:32:55.560Z,94980.81
2019-05-26T17:35:26.815Z,94977.60
2019-05-26T17:37:58.469Z,94974.81
2019-05-26T17:40:29.709Z,94973.09
2019-05-26T17:43:01.040Z,94975.42
2019-05-26T17:45:32.350Z,94976.97
2019-05-26T17:48:03.646Z,94976.55
2019-05-26T17:50:34.944Z,94972.67
2019-05-26T17:53:06.241Z,94973.81
2019-05-26T17:55:38.078Z,94975.73
2019-05-26T17:58:09.251Z,94973.59
2019-05-26T18:00:40.428Z,94968.11
2019-05-26T18:03:11.673Z,94974.30
2019-05-26T18:05:42.943Z,94971.31
2019-05-26T18:08:14.502Z,94975.02
2019-05-26T18:10:45.863Z,94971.88
2019-05-26T18:13:17.244Z,94974.91
2019-05-26T18:15:48.596Z,94977.15
2019-05-26T18:18:21.027Z,94974.83
2019-05-26T18:20:52.216Z,94975.23
2019-05-26T18:23:23.468Z,94974.32
2019-05-26T18:25:54.748Z,94977.05
2019-05-26T18:28:26.006Z,94967.80
2019-05-26T18:30:57.279Z,94969.94
2019-05-26T18:33:28.727Z,94968.29
2019-05-26T18:35:59.994Z,94971.15
2019-05-26T18:38:31.339Z,94963.83
2019-05-26T18:41:02.610Z,94967.69
2019-05-26T18:43:33.931Z,94965.73
2019-05-26T18:46:05.169Z,94971.31
2019-05-26T18:48:36.532Z,94972.05
2019-05-26T18:51:07.804Z,94975.05
2019-05-26T18:53:39.107Z,94976.69
2019-05-26T18:56:10.413Z,94978.80
2019-05-26T18:58:41.785Z,94973.27
2019-05-26T19:01:15.487Z,94981.73
2019-05-26T19:03:46.832Z,94987.23
2019-05-26T19:06:18.091Z,94986.41
2019-05-26T19:08:49.274Z,94984.80
2019-05-26T19:11:20.600Z,94988.27
2019-05-26T19:13:51.937Z,94992.15
2019-05-26T19:16:23.099Z,94989.30
2019-05-26T19:18:54.383Z,94986.80
2019-05-26T19:21:25.711Z,94992.43
2019-05-26T19:23:56.980Z,94995.44
2019-05-26T19:26:28.250Z,94990.48
2019-05-26T19:28:59.617Z,94989.92
2019-05-26T19:31:30.817Z,94990.12
2019-05-26T19:34:02.029Z,94994.70
2019-05-26T19:36:33.287Z,94993.95
2019-05-26T19:39:06.016Z,94995.34
2019-05-26T19:41:39.225Z,94997.08
2019-05-26T19:44:11.384Z,94982.79
2019-05-26T19:46:42.577Z,94987.87
2019-05-26T19:49:13.800Z,94984.63
2019-05-26T19:51:45.045Z,94982.34
2019-05-26T19:54:16.281Z,94976.81
2019-05-26T19:56:47.506Z,94986.41
2019-05-26T19:59:19.003Z,94987.77
2019-05-26T20:01:50.225Z,94990.34
2019-05-26T20:04:22.511Z,94990.17
2019-05-26T20:06:53.863Z,94986.69
2019-05-26T20:09:25.237Z,94992.03
2019-05-26T20:11:56.482Z,94987.61
2019-05-26T20:14:28.838Z,94981.11
2019-05-26T20:17:00.254Z,94986.14
2019-05-26T20:19:31.382Z,94979.45
2019-05-26T20:22:03.811Z,94983.92
2019-05-26T20:24:34.980Z,94985.63
2019-05-26T20:27:06.315Z,94985.42
2019-05-26T20:29:37.605Z,94987.27
2019-05-26T20:32:10.191Z,94985.92
2019-05-26T20:34:41.440Z,94983.55
2019-05-26T20:37:13.855Z,94983.70
2019-05-26T20:39:45.188Z,94984.69
2019-05-26T20:42:16.350Z,94986.67
2019-05-26T20:44:47.608Z,94988.18
2019-05-26T20:47:18.780Z,94989.99
2019-05-26T20:49:50.517Z,94986.52
2019-05-26T20:52:21.832Z,94985.45
2019-05-26T20:54:53.316Z,94986.56
2019-05-26T20:57:24.601Z,94988.11
2019-05-26T20:59:56.060Z,94992.41
2019-05-26T21:02:27.363Z,94991.50
2019-05-26T21:04:58.797Z,94994.78
2019-05-26T21:07:30.569Z,94995.38
2019-05-26T21:10:01.904Z,94991.22
2019-05-26T21:12:33.360Z,94995.02
2019-05-26T21:15:05.716Z,94984.47
2019-05-26T21:17:37.135Z,94988.00
2019-05-26T21:20:08.829Z,94987.85
2019-05-26T21:22:40.086Z,94991.84
2019-05-26T21:25:22.805Z,94993.64
2019-05-26T21:27:54.219Z,94986.91
2019-05-26T21:30:25.439Z,94994.00
2019-05-26T21:32:56.679Z,94997.15
2019-05-26T21:35:27.883Z,94991.52
2019-05-26T21:37:58.987Z,94998.95
2019-05-26T21:40:30.302Z,94997.07
2019-05-26T21:43:01.789Z,94997.86
2019-05-26T21:45:33.111Z,94991.22
2019-05-26T21:48:04.488Z,94990.95
2019-05-26T21:50:36.065Z,94994.32
2019-05-26T21:53:10.349Z,94987.85
2019-05-26T21:55:42.650Z,94996.50
2019-05-26T21:58:13.779Z,94991.30
2019-05-26T22:00:48.241Z,94984.02
2019-05-26T22:03:20.603Z,94990.81
2019-05-26T22:05:51.875Z,94991.34
2019-05-26T22:08:22.985Z,94984.39
2019-05-26T22:10:54.313Z,94983.43
2019-05-26T22:13:25.579Z,94979.80
2019-05-26T22:15:56.813Z,94976.89
2019-05-26T22:18:27.960Z,94974.49
2019-05-26T22:20:59.235Z,94976.84
2019-05-26T22:23:30.488Z,94970.78
2019-05-26T22:26:01.801Z,94973.31
2019-05-26T22:28:32.956Z,94975.94
2019-05-26T22:31:05.387Z,94974.05
2019-05-26T22:33:36.571Z,94976.66
2019-05-26T22:36:08.866Z,94977.11
2019-05-26T22:38:40.197Z,94973.38
2019-05-26T22:41:11.479Z,94970.14
2019-05-26T22:43:42.670Z,94968.28
2019-05-26T22:46:13.850Z,94965.77
2019-05-26T22:48:45.077Z,94963.53
2019-05-26T22:51:16.263Z,94956.92
2019-05-26T22:53:47.512Z,94954.05
2019-05-26T22:56:18.874Z,94957.53
2019-05-26T22:58:49.997Z,94952.50
2019-05-26T23:01:21.268Z,94955.13
2019-05-26T23:03:52.555Z,94946.30
2019-05-26T23:06:23.833Z,94949.31
2019-05-26T23:08:55.069Z,94955.06
2019-05-26T23:11:26.271Z,94952.10
2019-05-26T23:13:57.470Z,94945.62
2019-05-26T23:16:28.726Z,94938.94
2019-05-26T23:18:59.940Z,94943.48
2019-05-26T23:21:31.126Z,94936.72
2019-05-26T23:24:02.404Z,94935.72
2019-05-26T23:26:33.742Z,94933.16
2019-05-26T23:29:05.043Z,94932.62
2019-05-26T23:31:36.232Z,94927.95
2019-05-26T23:34:07.453Z,94924.34
2019-05-26T23:36:38.703Z,94929.31
2019-05-26T23:39:10.059Z,94931.78
2019-05-26T23:41:41.217Z,94922.01
2019-05-26T23:44:12.591Z,94924.66
2019-05-26T23:46:43.851Z,94927.81
2019-05-26T23:49:14.990Z,94927.58
2019-05-26T23:51:46.152Z,94926.45
2019-05-26T23:54:17.379Z,94927.75
2019-05-26T23:56:48.811Z,94928.23
2019-05-26T23:59:19.971Z,94925.02
